Aviation Digital Data Service (ADDS)

Output produced by TAFs form (1919 UTC 23 July 2017)
found at http://www.aviationweather.gov/adds/tafs/
 
METAR text: WBSB 231900Z 16003KT 9000 FEW014 BKN280 26/26 Q1009 NOSIG
Conditions at: WBSB (BRUNEI INTL AIRP, MY) observed 1900 UTC 23 July 2017
Temperature: 26.0°C (79°F)
Dewpoint: 26.0°C (79°F) [RH = 100%]
Pressure (altimeter): 29.79 inches Hg (1009.0 mb)
Winds: from the SSE (160 degrees) at 3 MPH (3 knots; 1.6 m/s)
Visibility: 6 miles (9 km)
Ceiling: 28000 feet AGL
Clouds: few clouds at 1400 feet AGL
broken clouds at 28000 feet AGL
Weather: no significant weather observed at this time

Forecast for: WBSB (BRUNEI INTL AIRP, MY)
Text: TAF WBSB 231645Z 2318/2500 23002KT 9999 FEW014
Forecast period: 1800 UTC 23 July 2017 to 0300 UTC 24 July 2017
Forecast type: FROM: standard forecast or significant change
Winds: from the SW (230 degrees) at 2 MPH (2 knots; 1.0 m/s)
Visibility: 6 or more miles (10+ km)
Clouds: few clouds at 1400 feet AGL
Weather: no significant weather forecast for this period
Text: BECMG 2403/2405 25010KT FEW016 FEW017CB
Forecast period: 0300 UTC 24 July 2017 to 0000 UTC 25 July 2017
Forecast type: BECOMING: Conditions expected to become as follows by 0500 UTC 24 July 2017
Winds: from the WSW (250 degrees) at 12 MPH (10 knots; 5.2 m/s)
Visibility: 6 or more miles (10+ km)
Clouds: few clouds at 1600 feet AGL
few clouds at 1700 feet AGL
Weather: no significant weather forecast for this period